Time;durP1;ratioP1;P1;durP2;ratioP2;P2;SDS_P1;SDS_P2;PMS_P1;PMS_P2;Temp;Humidity;BMP_temperature;BMP_pressure;BME280_temperature;BME280_humidity;BME280_pressure;Samples;Min_cycle;Max_cycle;Signal;HPM_P1;HPM_P2
2023/01/22 00:01:14;;;;;;;26.25;16.35;;;-1.60;99.90;;;;;;5053790;28;20073;-38
2023/01/22 00:03:40;;;;;;;30.30;16.70;;;-1.70;99.90;;;;;;5053864;28;20048;-38
2023/01/22 00:06:06;;;;;;;24.52;15.65;;;-1.70;99.90;;;;;;5074558;28;20033;-38
2023/01/22 00:08:33;;;;;;;30.40;16.08;;;-1.80;99.90;;;;;;5047463;28;20029;-38
2023/01/22 00:10:58;;;;;;;24.65;15.75;;;-1.80;99.90;;;;;;5054594;28;20072;-38
2023/01/22 00:13:25;;;;;;;28.35;16.80;;;-1.80;99.90;;;;;;5054369;28;20114;-36
2023/01/22 00:15:52;;;;;;;25.70;15.80;;;-1.80;99.90;;;;;;5054791;28;20405;-36
2023/01/22 00:18:19;;;;;;;25.52;15.40;;;-1.90;99.90;;;;;;5054494;28;20071;-35
2023/01/22 00:20:49;;;;;;;24.73;14.73;;;-1.90;99.90;;;;;;5074456;28;20040;-35
2023/01/22 00:23:15;;;;;;;27.13;15.85;;;-2.00;99.90;;;;;;5058328;28;20059;-35
2023/01/22 00:25:42;;;;;;;25.45;14.63;;;-2.00;99.90;;;;;;5058402;28;20040;-35
2023/01/22 00:28:08;;;;;;;25.25;14.90;;;-2.00;99.90;;;;;;5041236;28;20076;-35
2023/01/22 00:30:34;;;;;;;22.48;14.68;;;-2.10;99.90;;;;;;5075846;28;20048;-36
2023/01/22 00:32:59;;;;;;;29.77;16.48;;;-2.00;99.90;;;;;;5057089;28;20036;-36
2023/01/22 00:35:25;;;;;;;26.35;14.90;;;-2.10;99.90;;;;;;5057409;28;20032;-36
2023/01/22 00:37:51;;;;;;;24.83;14.65;;;-2.10;99.90;;;;;;5057388;28;20139;-36
2023/01/22 00:40:17;;;;;;;29.40;16.05;;;-2.00;99.90;;;;;;5062211;28;20142;-36
2023/01/22 00:42:43;;;;;;;25.75;15.77;;;-2.10;99.90;;;;;;5057594;28;20094;-36
2023/01/22 00:45:11;;;;;;;30.08;15.32;;;-2.10;99.90;;;;;;5058251;28;20495;-36
2023/01/22 00:47:37;;;;;;;25.33;15.57;;;-2.10;99.90;;;;;;5059345;28;20562;-36
2023/01/22 00:50:03;;;;;;;26.40;15.60;;;-2.10;99.90;;;;;;5060369;28;20032;-35
2023/01/22 00:52:29;;;;;;;29.00;14.95;;;-2.10;99.90;;;;;;5058663;28;20048;-36
2023/01/22 00:54:54;;;;;;;30.88;15.60;;;-2.00;99.90;;;;;;5061815;28;20035;-36
2023/01/22 00:57:20;;;;;;;29.55;16.08;;;-2.00;99.90;;;;;;5056806;28;20036;-35
2023/01/22 00:59:47;;;;;;;28.70;16.75;;;-2.00;99.90;;;;;;5057709;28;20447;-35
2023/01/22 01:02:14;;;;;;;30.55;15.55;;;-2.00;99.90;;;;;;5057639;28;20435;-35
2023/01/22 01:04:40;;;;;;;33.60;17.13;;;-2.00;99.90;;;;;;5057541;28;20044;-35
2023/01/22 01:07:05;;;;;;;32.50;16.60;;;-2.00;99.90;;;;;;5057285;28;20140;-35
2023/01/22 01:09:31;;;;;;;34.53;17.90;;;-2.00;99.90;;;;;;5057523;28;20112;-35
2023/01/22 01:11:57;;;;;;;36.80;17.67;;;-1.90;99.90;;;;;;5056726;28;20045;-35
2023/01/22 01:14:23;;;;;;;34.08;18.75;;;-1.90;99.90;;;;;;5055227;28;20033;-35
2023/01/22 01:16:50;;;;;;;34.63;18.00;;;-1.90;99.90;;;;;;5054495;28;20451;-35
2023/01/22 01:19:16;;;;;;;36.83;19.40;;;-1.90;99.90;;;;;;5056253;28;20120;-35
2023/01/22 01:21:43;;;;;;;35.90;19.05;;;-1.80;99.90;;;;;;5056467;28;20090;-35
2023/01/22 01:24:09;;;;;;;36.03;18.15;;;-1.80;99.90;;;;;;5056715;28;20047;-35
2023/01/22 01:26:36;;;;;;;36.95;18.90;;;-1.90;99.90;;;;;;5057261;28;20397;-35
2023/01/22 01:29:03;;;;;;;37.17;19.00;;;-1.90;99.90;;;;;;5074597;28;20052;-34
2023/01/22 01:31:29;;;;;;;35.42;17.67;;;-1.90;99.90;;;;;;5056889;28;20497;-34
2023/01/22 01:33:56;;;;;;;36.28;19.05;;;-1.90;99.90;;;;;;5057879;28;20047;-35
2023/01/22 01:36:24;;;;;;;37.92;17.92;;;-2.00;99.90;;;;;;5056972;28;20028;-35
2023/01/22 01:38:50;;;;;;;37.50;19.90;;;-2.00;99.90;;;;;;5057832;22;20090;-35
2023/01/22 01:41:24;;;;;;;36.65;19.08;;;-2.00;99.90;;;;;;5050637;28;20037;-34
2023/01/22 01:44:10;;;;;;;34.40;19.25;;;-2.00;99.90;;;;;;5033300;28;20041;-35
2023/01/22 01:46:42;;;;;;;36.28;18.25;;;-2.00;99.90;;;;;;5033461;28;20037;-34
2023/01/22 01:49:20;;;;;;;34.67;18.02;;;-2.00;99.90;;;;;;5033033;28;20092;-34
2023/01/22 01:51:48;;;;;;;39.83;20.83;;;-2.00;99.90;;;;;;5033515;28;20061;-34
2023/01/22 01:54:14;;;;;;;36.78;18.45;;;-2.00;99.90;;;;;;5033368;28;20103;-34
2023/01/22 01:56:45;;;;;;;39.78;18.15;;;-1.90;99.90;;;;;;5032946;28;20058;-35
2023/01/22 01:59:16;;;;;;;36.35;18.33;;;-1.90;99.90;;;;;;5033449;28;20041;-35
2023/01/22 02:01:48;;;;;;;39.10;18.85;;;-1.90;99.90;;;;;;5033348;28;20048;-35
2023/01/22 02:04:14;;;;;;;38.70;19.42;;;-1.80;99.90;;;;;;5033043;28;20042;-35
2023/01/22 02:06:40;;;;;;;34.10;18.73;;;-1.80;99.90;;;;;;5033448;28;20604;-35
2023/01/22 02:09:06;;;;;;;41.50;19.98;;;-1.70;99.90;;;;;;5032579;28;20117;-37
2023/01/22 02:11:33;;;;;;;49.17;21.23;;;-1.70;99.90;;;;;;5032253;28;20033;-36
2023/01/22 02:14:00;;;;;;;44.58;19.77;;;-1.60;99.90;;;;;;5032372;28;20037;-37
2023/01/22 02:16:26;;;;;;;40.88;20.50;;;-1.50;99.90;;;;;;5032494;28;20597;-37
2023/01/22 02:18:52;;;;;;;45.78;22.42;;;-1.40;99.90;;;;;;5032132;28;20048;-37
2023/01/22 02:21:37;;;;;;;40.67;21.33;;;-1.30;99.90;;;;;;5032298;28;20098;-37
2023/01/22 02:24:12;;;;;;;43.38;20.70;;;-1.20;99.90;;;;;;5022789;28;20052;-36
2023/01/22 02:26:39;;;;;;;37.20;19.40;;;-1.10;99.90;;;;;;5027173;28;20091;-36
2023/01/22 02:29:06;;;;;;;36.65;18.45;;;-1.10;99.90;;;;;;5045691;28;20037;-36
2023/01/22 02:31:33;;;;;;;32.85;17.17;;;-1.00;99.90;;;;;;5032682;28;20107;-36
2023/01/22 02:34:00;;;;;;;33.40;18.40;;;-0.90;99.90;;;;;;5032614;28;20091;-35
2023/01/22 02:36:28;;;;;;;33.58;17.75;;;-0.80;99.90;;;;;;5032431;28;20029;-36
2023/01/22 02:38:53;;;;;;;31.35;18.00;;;-0.80;99.90;;;;;;5032081;28;20046;-36
2023/01/22 02:41:19;;;;;;;34.35;18.02;;;-0.80;99.90;;;;;;5032010;28;20371;-37
2023/01/22 02:43:45;;;;;;;33.05;18.50;;;-0.70;99.90;;;;;;5014514;28;20076;-36
2023/01/22 02:46:11;;;;;;;30.63;16.35;;;-0.70;99.90;;;;;;5031783;28;20119;-37
2023/01/22 02:48:36;;;;;;;28.45;15.88;;;-0.60;99.90;;;;;;5031778;28;20073;-37
2023/01/22 02:51:03;;;;;;;28.23;15.05;;;-0.60;99.90;;;;;;5031722;28;20037;-37
2023/01/22 02:53:28;;;;;;;27.23;13.93;;;-0.50;99.90;;;;;;5031501;28;20038;-37
2023/01/22 02:55:54;;;;;;;24.13;13.40;;;-0.50;99.90;;;;;;5019859;28;20486;-37
2023/01/22 02:58:20;;;;;;;22.23;13.55;;;-0.40;99.90;;;;;;5019331;28;20042;-37
2023/01/22 03:00:46;;;;;;;21.05;12.27;;;-0.40;99.90;;;;;;5030176;28;20034;-37
2023/01/22 03:03:14;;;;;;;20.98;12.38;;;-0.40;99.90;;;;;;5031314;28;20453;-37
2023/01/22 03:05:47;;;;;;;22.00;11.88;;;-0.30;99.90;;;;;;5031251;28;20033;-37
2023/01/22 03:08:13;;;;;;;21.10;11.80;;;-0.20;99.90;;;;;;5031358;28;20095;-37
2023/01/22 03:10:39;;;;;;;22.88;12.10;;;-0.20;99.90;;;;;;5031634;28;20038;-38
2023/01/22 03:21:17;;;;;;;19.52;11.63;;;-0.10;99.90;;;;;;5075599;28;20048;-37
2023/01/22 03:23:49;;;;;;;20.90;11.45;;;-0.10;99.90;;;;;;5057490;28;20120;-37
2023/01/22 03:26:16;;;;;;;19.02;11.05;;;0.00;99.90;;;;;;5057839;28;20040;-37
2023/01/22 03:28:42;;;;;;;18.30;11.05;;;0.00;99.90;;;;;;5062176;28;20033;-37
2023/01/22 03:31:08;;;;;;;15.73;9.70;;;0.00;99.90;;;;;;5057965;28;20043;-37
2023/01/22 03:33:34;;;;;;;18.27;10.68;;;0.10;99.90;;;;;;5075415;28;20037;-36
2023/01/22 03:36:06;;;;;;;17.75;10.60;;;0.10;99.90;;;;;;5056201;28;20063;-37
2023/01/22 03:38:32;;;;;;;12.00;8.82;;;0.10;99.90;;;;;;5057238;28;20037;-37
2023/01/22 03:41:02;;;;;;;15.35;9.20;;;0.10;99.90;;;;;;5057166;28;20504;-37
2023/01/22 03:43:28;;;;;;;18.10;10.60;;;0.10;99.90;;;;;;5057584;28;20047;-37
2023/01/22 03:45:58;;;;;;;15.68;9.90;;;0.20;99.90;;;;;;5057328;28;20115;-37
2023/01/22 03:48:24;;;;;;;14.30;9.15;;;0.10;99.90;;;;;;5056901;28;20033;-37
2023/01/22 03:50:50;;;;;;;15.25;9.50;;;0.10;99.90;;;;;;5053309;28;20093;-37
2023/01/22 03:53:16;;;;;;;16.38;10.38;;;0.20;99.90;;;;;;5057173;28;20370;-37
2023/01/22 03:55:42;;;;;;;13.55;9.02;;;0.20;99.90;;;;;;5074476;28;20039;-37
2023/01/22 03:58:08;;;;;;;15.68;9.32;;;0.20;99.90;;;;;;5053804;28;20044;-37
2023/01/22 04:00:34;;;;;;;16.63;9.73;;;0.20;99.90;;;;;;5040309;28;20150;-37
2023/01/22 04:03:00;;;;;;;17.23;9.40;;;0.20;99.90;;;;;;5040168;28;20051;-37
2023/01/22 04:05:25;;;;;;;15.73;10.73;;;0.20;99.90;;;;;;5057624;28;20039;-37
2023/01/22 04:07:51;;;;;;;12.02;9.18;;;0.30;99.90;;;;;;5056922;28;20039;-36
2023/01/22 04:10:17;;;;;;;13.68;9.90;;;0.30;99.90;;;;;;5056816;28;20438;-37
2023/01/22 04:12:43;;;;;;;14.07;9.82;;;0.30;99.90;;;;;;5078177;28;20116;-37
2023/01/22 04:15:10;;;;;;;13.88;9.88;;;0.30;99.90;;;;;;5056531;28;20040;-37
2023/01/22 04:17:36;;;;;;;16.90;10.05;;;0.30;99.90;;;;;;5057084;28;20033;-37
2023/01/22 04:20:02;;;;;;;19.95;10.32;;;0.30;99.90;;;;;;5042572;28;20547;-36
2023/01/22 04:22:28;;;;;;;14.27;10.38;;;0.30;99.90;;;;;;5079262;28;20060;-36
2023/01/22 04:24:53;;;;;;;15.52;10.23;;;0.30;99.90;;;;;;5056995;28;20524;-37
2023/01/22 04:27:19;;;;;;;12.75;10.18;;;0.30;99.90;;;;;;5056332;28;20083;-37
2023/01/22 04:29:45;;;;;;;13.68;10.32;;;0.30;99.90;;;;;;5056323;28;20036;-37
2023/01/22 04:32:11;;;;;;;16.70;10.43;;;0.30;99.90;;;;;;5066593;28;20046;-37
2023/01/22 04:34:37;;;;;;;14.13;9.85;;;0.40;99.90;;;;;;5056801;28;20090;-37
2023/01/22 04:37:03;;;;;;;13.98;10.18;;;0.30;99.90;;;;;;5056556;28;20040;-37
2023/01/22 04:39:30;;;;;;;13.50;10.38;;;0.40;99.90;;;;;;5053262;28;20037;-36
2023/01/22 04:41:57;;;;;;;14.20;10.63;;;0.40;99.90;;;;;;5070068;28;20032;-37
2023/01/22 04:44:22;;;;;;;15.13;10.88;;;0.40;99.90;;;;;;5056618;28;20401;-37
2023/01/22 04:46:48;;;;;;;13.63;9.82;;;0.40;99.90;;;;;;5045922;28;20040;-37
2023/01/22 04:49:14;;;;;;;14.23;10.77;;;0.40;99.90;;;;;;5055941;28;20041;-37
2023/01/22 04:51:40;;;;;;;12.48;10.35;;;0.40;99.90;;;;;;5056084;28;20131;-37
2023/01/22 04:54:06;;;;;;;13.90;10.35;;;0.40;99.90;;;;;;5055781;28;20115;-37
2023/01/22 04:56:32;;;;;;;16.90;10.60;;;0.40;99.90;;;;;;5074336;28;20063;-37
2023/01/22 04:58:58;;;;;;;14.38;10.65;;;0.40;99.90;;;;;;5040154;28;20045;-37
2023/01/22 05:01:24;;;;;;;10.88;9.63;;;0.40;99.90;;;;;;5060776;28;20037;-37
2023/01/22 05:03:50;;;;;;;14.02;10.50;;;0.40;99.90;;;;;;5056372;28;20037;-37
2023/01/22 05:06:16;;;;;;;12.65;10.80;;;0.40;99.90;;;;;;5057855;28;20045;-37
2023/01/22 05:08:42;;;;;;;12.40;10.93;;;0.40;99.90;;;;;;5059240;28;20043;-37
2023/01/22 05:11:08;;;;;;;14.38;11.43;;;0.40;99.90;;;;;;5064371;28;20036;-37
2023/01/22 05:13:34;;;;;;;13.88;11.20;;;0.40;99.90;;;;;;5055657;28;20044;-37
2023/01/22 05:16:00;;;;;;;13.88;11.32;;;0.40;99.90;;;;;;5059682;28;20056;-37
2023/01/22 05:18:25;;;;;;;13.70;11.32;;;0.40;99.90;;;;;;5059462;28;20040;-37
2023/01/22 05:20:51;;;;;;;13.15;10.85;;;0.40;99.90;;;;;;5079067;28;20500;-37
2023/01/22 05:23:17;;;;;;;14.98;11.93;;;0.30;99.90;;;;;;5061227;28;20422;-37
2023/01/22 05:25:48;;;;;;;13.50;12.00;;;0.40;99.90;;;;;;5053985;28;20043;-37
2023/01/22 05:28:14;;;;;;;13.07;11.52;;;0.40;99.90;;;;;;5059661;28;20396;-37
2023/01/22 05:30:40;;;;;;;13.60;11.82;;;0.40;99.90;;;;;;5059981;28;20047;-37
2023/01/22 05:33:06;;;;;;;14.90;11.95;;;0.40;99.90;;;;;;5082811;28;20039;-37
2023/01/22 05:35:32;;;;;;;12.93;10.82;;;0.30;99.90;;;;;;5064278;28;20602;-37
2023/01/22 05:37:58;;;;;;;12.93;11.43;;;0.40;99.90;;;;;;5035540;28;20057;-37
2023/01/22 05:40:24;;;;;;;13.18;10.77;;;0.40;99.90;;;;;;5060773;28;20037;-37
2023/01/22 05:42:50;;;;;;;11.50;10.40;;;0.30;99.90;;;;;;5060871;28;20064;-37
2023/01/22 05:45:16;;;;;;;12.18;10.55;;;0.40;99.90;;;;;;5057358;28;20486;-37
2023/01/22 05:47:42;;;;;;;11.75;10.43;;;0.40;99.90;;;;;;5057352;28;20094;-37
2023/01/22 05:50:08;;;;;;;13.57;11.48;;;0.40;99.90;;;;;;5056812;28;20029;-37
2023/01/22 05:52:34;;;;;;;12.25;10.65;;;0.40;99.90;;;;;;5056892;28;20047;-37
2023/01/22 05:55:00;;;;;;;12.85;11.48;;;0.40;99.90;;;;;;5042988;28;20036;-38
2023/01/22 05:57:28;;;;;;;14.55;11.32;;;0.40;99.90;;;;;;5058705;28;20029;-37
2023/01/22 05:59:54;;;;;;;11.57;10.48;;;0.40;99.90;;;;;;5049133;28;20041;-37
2023/01/22 06:02:20;;;;;;;12.73;11.07;;;0.40;99.90;;;;;;5059037;28;20068;-37
2023/01/22 06:04:46;;;;;;;11.60;10.40;;;0.40;99.90;;;;;;5058450;28;20052;-37
2023/01/22 06:07:12;;;;;;;12.43;10.43;;;0.40;99.90;;;;;;5076568;28;20067;-37
2023/01/22 06:09:38;;;;;;;13.00;9.75;;;0.40;99.90;;;;;;5042912;28;20539;-37
2023/01/22 06:12:04;;;;;;;14.23;10.18;;;0.30;99.90;;;;;;5057178;28;20040;-37
2023/01/22 06:14:30;;;;;;;11.45;9.70;;;0.40;99.90;;;;;;5058268;28;20508;-36
2023/01/22 06:16:56;;;;;;;11.70;9.15;;;0.40;99.90;;;;;;5057977;28;20032;-36
2023/01/22 06:19:22;;;;;;;11.25;9.73;;;0.40;99.90;;;;;;5065211;28;20044;-36
2023/01/22 06:21:48;;;;;;;15.15;10.77;;;0.40;99.90;;;;;;5046147;28;20070;-37
2023/01/22 06:24:14;;;;;;;11.82;9.02;;;0.40;99.90;;;;;;5057907;28;20379;-37
2023/01/22 06:26:40;;;;;;;11.40;9.00;;;0.40;99.90;;;;;;5032529;28;20043;-36
2023/01/22 06:29:06;;;;;;;11.88;9.30;;;0.40;99.90;;;;;;5056295;28;20549;-37
2023/01/22 06:31:32;;;;;;;11.85;9.50;;;0.40;99.90;;;;;;5058765;28;20049;-37
2023/01/22 06:33:58;;;;;;;10.40;9.30;;;0.40;99.90;;;;;;5058053;28;20052;-37
2023/01/22 06:36:24;;;;;;;10.52;9.35;;;0.40;99.90;;;;;;5055208;28;20659;-37
2023/01/22 06:38:49;;;;;;;13.07;9.48;;;0.40;99.90;;;;;;5053082;28;20093;-37
2023/01/22 06:41:16;;;;;;;9.75;8.73;;;0.40;99.90;;;;;;5071186;28;20133;-37
2023/01/22 06:43:42;;;;;;;11.65;9.35;;;0.40;99.90;;;;;;5057412;28;20063;-37
2023/01/22 06:46:08;;;;;;;12.38;9.35;;;0.40;99.90;;;;;;5057117;28;20036;-36
2023/01/22 06:48:34;;;;;;;13.20;9.57;;;0.40;99.90;;;;;;5057295;28;20462;-37
2023/01/22 06:51:00;;;;;;;11.90;9.60;;;0.40;99.90;;;;;;5058397;28;20115;-37
2023/01/22 06:53:27;;;;;;;10.32;9.10;;;0.40;99.90;;;;;;5056337;28;20040;-38
2023/01/22 06:55:53;;;;;;;10.85;9.10;;;0.40;99.90;;;;;;5056933;28;20112;-38
2023/01/22 06:58:19;;;;;;;11.57;8.60;;;0.30;99.90;;;;;;5056950;28;20039;-37
2023/01/22 07:00:44;;;;;;;11.10;9.80;;;0.30;99.90;;;;;;5058292;28;20119;-37
2023/01/22 07:03:10;;;;;;;11.25;9.23;;;0.20;99.90;;;;;;5056822;28;20059;-37
2023/01/22 07:05:37;;;;;;;9.82;8.63;;;0.20;99.90;;;;;;5061267;28;20115;-37
2023/01/22 07:08:02;;;;;;;11.32;9.45;;;0.10;99.90;;;;;;5056540;28;20123;-37
2023/01/22 07:10:28;;;;;;;10.50;9.25;;;0.10;99.90;;;;;;5051803;28;20037;-38
2023/01/22 07:12:57;;;;;;;12.63;9.68;;;0.10;99.90;;;;;;5048368;28;20115;-37
2023/01/22 07:15:25;;;;;;;10.32;9.23;;;0.00;99.90;;;;;;5052711;28;20677;-37
2023/01/22 07:17:52;;;;;;;12.68;9.75;;;0.00;99.90;;;;;;5053363;28;20059;-37
2023/01/22 07:20:21;;;;;;;11.63;10.38;;;0.00;99.90;;;;;;5055289;28;20667;-36
2023/01/22 07:22:48;;;;;;;13.52;10.27;;;0.10;99.90;;;;;;5054170;28;20036;-37
2023/01/22 07:25:15;;;;;;;15.75;10.30;;;0.10;99.90;;;;;;5052790;28;20036;-37
2023/01/22 07:27:43;;;;;;;12.05;10.13;;;0.10;99.90;;;;;;5052548;28;20040;-37
2023/01/22 07:30:10;;;;;;;12.98;10.77;;;0.10;99.90;;;;;;5067151;28;20074;-37
2023/01/22 07:32:37;;;;;;;15.07;11.52;;;0.10;99.90;;;;;;5068739;28;20512;-37
2023/01/22 07:35:05;;;;;;;13.77;11.23;;;0.10;99.90;;;;;;5066285;28;20048;-37
2023/01/22 07:37:31;;;;;;;12.73;10.60;;;0.10;99.90;;;;;;5048581;28;20113;-37
2023/01/22 07:39:57;;;;;;;14.00;10.77;;;0.20;99.90;;;;;;5047546;28;20374;-36
2023/01/22 07:42:23;;;;;;;14.32;11.68;;;0.20;99.90;;;;;;5052410;28;20119;-37
2023/01/22 07:44:50;;;;;;;14.35;11.18;;;0.20;99.90;;;;;;5053415;28;20390;-37
2023/01/22 07:47:17;;;;;;;12.27;10.77;;;0.20;99.90;;;;;;5066249;28;20036;-36
2023/01/22 07:49:43;;;;;;;12.45;11.00;;;0.30;99.90;;;;;;5067963;28;20068;-37
2023/01/22 07:52:09;;;;;;;13.88;11.30;;;0.20;99.90;;;;;;5052984;28;20068;-38
2023/01/22 07:54:35;;;;;;;11.93;10.02;;;0.30;99.90;;;;;;5070109;28;20032;-37
2023/01/22 07:57:02;;;;;;;12.35;10.57;;;0.30;99.90;;;;;;5054850;28;20041;-37
2023/01/22 07:59:28;;;;;;;13.25;11.23;;;0.30;99.90;;;;;;5054818;28;20032;-37
2023/01/22 08:01:54;;;;;;;12.30;10.85;;;0.30;99.90;;;;;;5054514;28;20378;-37
2023/01/22 08:04:20;;;;;;;13.10;10.40;;;0.30;99.90;;;;;;5055607;28;20091;-37
2023/01/22 08:06:46;;;;;;;16.67;11.48;;;0.30;99.90;;;;;;5055236;28;20401;-37
2023/01/22 08:09:12;;;;;;;13.50;12.10;;;0.30;99.90;;;;;;5055798;28;20032;-37
2023/01/22 08:11:38;;;;;;;13.43;11.38;;;0.30;99.90;;;;;;5055716;28;20052;-37
2023/01/22 08:14:04;;;;;;;14.73;11.27;;;0.30;99.90;;;;;;5055237;28;20391;-37
2023/01/22 08:16:30;;;;;;;15.55;11.80;;;0.40;99.90;;;;;;5073069;28;20082;-37
2023/01/22 08:18:56;;;;;;;13.93;12.43;;;0.40;99.90;;;;;;5054245;28;20153;-37
2023/01/22 08:21:22;;;;;;;13.93;12.32;;;0.40;99.90;;;;;;5072633;28;20040;-37
2023/01/22 08:23:48;;;;;;;17.02;12.30;;;0.50;99.90;;;;;;5073114;28;20097;-37
2023/01/22 08:26:14;;;;;;;14.75;12.02;;;0.50;99.90;;;;;;5054876;28;20557;-37
2023/01/22 08:28:40;;;;;;;14.60;12.65;;;0.50;99.90;;;;;;5053713;28;20056;-37
2023/01/22 08:31:06;;;;;;;15.13;12.18;;;0.50;99.90;;;;;;5023134;28;20102;-37
2023/01/22 08:33:33;;;;;;;14.02;12.27;;;0.50;99.90;;;;;;5053613;28;20040;-37
2023/01/22 08:35:59;;;;;;;13.55;12.15;;;0.60;99.90;;;;;;5073502;28;20120;-37
2023/01/22 08:38:24;;;;;;;14.10;11.93;;;0.60;99.90;;;;;;5046880;28;20100;-37
2023/01/22 08:40:51;;;;;;;14.40;12.18;;;0.60;99.90;;;;;;5053826;28;20036;-37
2023/01/22 08:43:18;;;;;;;16.42;12.18;;;0.60;99.90;;;;;;5057670;28;20032;-37
2023/01/22 08:45:47;;;;;;;14.30;12.23;;;0.60;99.90;;;;;;5059482;28;20036;-37
2023/01/22 08:48:13;;;;;;;16.52;11.88;;;0.70;99.90;;;;;;5055731;28;20100;-37
2023/01/22 08:50:38;;;;;;;14.32;11.68;;;0.70;99.90;;;;;;5075761;28;20111;-37
2023/01/22 08:53:04;;;;;;;14.55;11.90;;;0.70;99.90;;;;;;5054934;28;20040;-37
2023/01/22 08:55:30;;;;;;;14.60;12.13;;;0.70;99.90;;;;;;5059025;28;20569;-37
2023/01/22 08:57:57;;;;;;;13.23;11.43;;;0.70;99.90;;;;;;5058844;28;20094;-37
2023/01/22 09:00:24;;;;;;;13.30;11.13;;;0.80;99.90;;;;;;5059116;28;20033;-37
2023/01/22 09:02:50;;;;;;;15.20;11.90;;;0.80;99.90;;;;;;5058568;28;20037;-37
2023/01/22 09:05:15;;;;;;;13.98;11.25;;;0.80;99.90;;;;;;5076822;28;20511;-37
2023/01/22 09:07:41;;;;;;;13.68;11.75;;;0.90;99.90;;;;;;5059388;28;20040;-37
2023/01/22 09:10:11;;;;;;;14.00;10.95;;;1.00;99.90;;;;;;5058523;28;20032;-37
2023/01/22 09:12:38;;;;;;;14.95;11.27;;;1.00;99.90;;;;;;5053479;28;20037;-37
2023/01/22 09:15:05;;;;;;;14.80;12.00;;;1.00;99.90;;;;;;5077345;28;20120;-37
2023/01/22 09:17:31;;;;;;;14.77;11.55;;;1.10;99.90;;;;;;5054635;28;20029;-37
2023/01/22 09:19:56;;;;;;;12.57;11.27;;;1.10;99.90;;;;;;5056038;28;20037;-37
2023/01/22 09:22:22;;;;;;;14.55;11.05;;;1.10;99.90;;;;;;5076933;28;20035;-37
2023/01/22 09:24:48;;;;;;;12.23;10.95;;;1.20;99.90;;;;;;5055132;28;20068;-37
2023/01/22 09:27:14;;;;;;;13.85;10.80;;;1.20;99.90;;;;;;5050109;28;20577;-37
2023/01/22 09:29:40;;;;;;;12.45;10.90;;;1.20;99.90;;;;;;5042885;28;20029;-37
2023/01/22 09:32:06;;;;;;;13.00;11.35;;;1.30;99.90;;;;;;5059286;28;20037;-37
2023/01/22 09:34:32;;;;;;;13.30;10.55;;;1.30;99.90;;;;;;5059235;28;20341;-37
2023/01/22 09:37:01;;;;;;;13.50;11.35;;;1.30;99.90;;;;;;5062502;28;20162;-37
2023/01/22 09:39:27;;;;;;;13.02;11.23;;;1.40;99.90;;;;;;5059760;28;20040;-37
2023/01/22 09:41:56;;;;;;;14.82;10.95;;;1.40;99.90;;;;;;5058671;28;20040;-37
2023/01/22 09:44:39;;;;;;;13.93;12.05;;;1.40;99.90;;;;;;5051414;28;20071;-37
2023/01/22 09:47:16;;;;;;;14.45;11.38;;;1.40;99.90;;;;;;5063082;28;20048;-37
2023/01/22 09:49:50;;;;;;;13.35;10.13;;;1.50;99.90;;;;;;5059070;28;20125;-37
2023/01/22 09:52:16;;;;;;;12.73;10.88;;;1.50;99.90;;;;;;5076391;28;20051;-37
2023/01/22 09:54:43;;;;;;;12.57;11.07;;;1.50;99.90;;;;;;5075671;28;20321;-37
2023/01/22 09:57:12;;;;;;;11.13;9.95;;;1.50;99.90;;;;;;5059037;28;20036;-38
2023/01/22 09:59:57;;;;;;;12.02;10.82;;;1.50;99.90;;;;;;5059190;28;20040;-37
2023/01/22 10:02:26;;;;;;;13.02;10.50;;;1.50;99.90;;;;;;5066968;28;20068;-37
2023/01/22 10:04:57;;;;;;;12.30;10.13;;;1.50;99.90;;;;;;5042336;28;20045;-37
2023/01/22 10:07:51;;;;;;;12.80;10.88;;;1.60;99.90;;;;;;5062618;28;20032;-37
2023/01/22 10:10:23;;;;;;;14.10;10.77;;;1.50;99.90;;;;;;5058619;28;20033;-37
2023/01/22 10:13:20;;;;;;;12.30;10.40;;;1.60;99.90;;;;;;5057827;28;20032;-37
2023/01/22 10:15:48;;;;;;;11.88;10.10;;;1.60;99.90;;;;;;5052515;28;20493;-41
2023/01/22 10:18:50;;;;;;;13.80;11.38;;;1.60;99.90;;;;;;5076337;28;20078;-37
2023/01/22 10:21:40;;;;;;;14.57;10.80;;;1.70;99.90;;;;;;5069496;28;20036;-37
2023/01/22 10:24:10;;;;;;;12.63;10.48;;;1.70;99.90;;;;;;5072393;28;20037;-37
2023/01/22 10:26:40;;;;;;;12.93;10.85;;;1.70;99.90;;;;;;5058636;28;20029;-37
2023/01/22 10:29:20;;;;;;;12.13;10.52;;;1.70;99.90;;;;;;5053915;28;20029;-38
2023/01/22 10:31:49;;;;;;;11.70;10.48;;;1.70;99.90;;;;;;5076173;28;20040;-37
2023/01/22 10:34:20;;;;;;;12.95;11.25;;;1.70;99.90;;;;;;5076348;28;20032;-37
2023/01/22 10:36:51;;;;;;;12.90;10.75;;;1.70;99.90;;;;;;5075880;28;20094;-37
2023/01/22 10:39:17;;;;;;;13.02;10.48;;;1.60;99.90;;;;;;5074948;28;20040;-37
2023/01/22 10:41:45;;;;;;;13.90;11.02;;;1.70;99.90;;;;;;5057498;28;20033;-38
2023/01/22 10:44:21;;;;;;;13.70;11.13;;;1.70;99.90;;;;;;5076008;28;20037;-37
2023/01/22 10:46:49;;;;;;;13.25;11.32;;;1.70;99.90;;;;;;5057777;28;20048;-37
2023/01/22 10:49:25;;;;;;;12.65;10.23;;;1.70;99.90;;;;;;5055199;28;20032;-37
2023/01/22 10:51:56;;;;;;;15.65;11.13;;;1.80;99.90;;;;;;5055157;28;20089;-37
2023/01/22 10:54:28;;;;;;;14.32;11.50;;;1.80;99.90;;;;;;5049832;28;20052;-37
2023/01/22 10:57:14;;;;;;;12.95;11.35;;;1.90;99.90;;;;;;5075489;28;20047;-37
2023/01/22 11:00:03;;;;;;;13.93;11.20;;;1.90;99.90;;;;;;5057175;28;20039;-37
2023/01/22 11:02:29;;;;;;;15.02;11.60;;;2.00;99.90;;;;;;5033654;28;20044;-38
2023/01/22 11:05:05;;;;;;;14.48;11.68;;;2.00;99.90;;;;;;5075185;28;20036;-37
2023/01/22 11:07:32;;;;;;;14.85;10.93;;;2.00;99.90;;;;;;5044601;28;20048;-38
2023/01/22 11:10:15;;;;;;;13.32;11.68;;;2.00;99.90;;;;;;5067051;28;20367;-37
2023/01/22 11:13:04;;;;;;;12.77;10.90;;;2.10;99.90;;;;;;5057432;28;20044;-37
2023/01/22 11:15:36;;;;;;;12.75;11.20;;;2.10;99.90;;;;;;5071290;28;20032;-38
2023/01/22 11:18:05;;;;;;;15.90;12.25;;;2.10;99.90;;;;;;5056788;28;20048;-39
2023/01/22 11:20:45;;;;;;;13.70;11.40;;;2.10;99.90;;;;;;5056913;28;20032;-38
2023/01/22 11:23:26;;;;;;;14.27;11.18;;;2.10;99.90;;;;;;5057319;28;20041;-37
2023/01/22 11:26:08;;;;;;;12.68;11.32;;;2.00;99.90;;;;;;5056893;28;20077;-38
2023/01/22 11:28:45;;;;;;;14.00;11.90;;;2.00;99.90;;;;;;5044915;28;20048;-38
2023/01/22 11:31:19;;;;;;;16.17;12.02;;;2.00;99.90;;;;;;5058006;28;20037;-38
2023/01/22 11:34:18;;;;;;;14.02;12.15;;;1.90;99.90;;;;;;5056264;28;20039;-39
2023/01/22 11:36:53;;;;;;;14.70;11.02;;;2.00;99.90;;;;;;5071118;28;20060;-37
2023/01/22 11:39:31;;;;;;;15.85;12.73;;;2.00;99.90;;;;;;5047133;28;20045;-38
2023/01/22 11:42:05;;;;;;;16.42;12.65;;;2.10;99.90;;;;;;5062522;28;20501;-38
2023/01/22 11:44:46;;;;;;;13.77;10.63;;;2.00;99.90;;;;;;5054112;28;20032;-38
2023/01/22 11:47:27;;;;;;;13.48;11.27;;;2.10;99.90;;;;;;5032348;28;20045;-37
2023/01/22 11:50:11;;;;;;;13.07;11.20;;;2.10;99.90;;;;;;5057284;28;20033;-37
2023/01/22 11:52:36;;;;;;;;;;;2.10;99.90;;;;;;5037832;28;20033;-38
2023/01/22 11:55:25;;;;;;;13.25;11.77;;;2.20;99.90;;;;;;5060527;28;20278;-38
2023/01/22 11:58:10;;;;;;;14.00;11.30;;;2.20;99.90;;;;;;5055334;28;20033;-38
2023/01/22 12:00:50;;;;;;;13.85;10.93;;;2.30;99.90;;;;;;5060916;28;20033;-38
2023/01/22 12:03:54;;;;;;;12.73;10.50;;;2.30;99.90;;;;;;5049119;28;20494;-38
2023/01/22 12:06:52;;;;;;;14.38;10.98;;;2.30;99.90;;;;;;5036844;28;20041;-37
2023/01/22 12:09:46;;;;;;;14.70;11.25;;;2.40;99.90;;;;;;5048954;28;20075;-37
2023/01/22 12:12:52;;;;;;;15.50;10.45;;;2.40;99.90;;;;;;5042662;28;20084;-38
2023/01/22 12:15:45;;;;;;;12.20;10.27;;;2.40;99.90;;;;;;5050855;28;20097;-37
2023/01/22 12:18:30;;;;;;;13.68;11.07;;;2.40;99.90;;;;;;5071189;28;20040;-37
2023/01/22 12:21:16;;;;;;;13.82;10.65;;;2.40;99.90;;;;;;5063122;28;20032;-38
2023/01/22 12:23:49;;;;;;;14.10;9.93;;;2.40;99.90;;;;;;5031029;28;20390;-37
2023/01/22 12:26:25;;;;;;;14.32;10.57;;;2.40;99.90;;;;;;5054531;28;20075;-38
2023/01/22 12:29:01;;;;;;;12.15;9.98;;;2.40;99.90;;;;;;5027413;28;20090;-37
2023/01/22 12:32:03;;;;;;;12.80;9.43;;;2.40;99.90;;;;;;5047167;28;20497;-37
2023/01/22 12:35:17;;;;;;;15.20;10.52;;;2.40;99.90;;;;;;5049766;28;20032;-38
2023/01/22 12:37:58;;;;;;;14.75;10.35;;;2.40;99.90;;;;;;5048158;28;20036;-38
2023/01/22 12:40:43;;;;;;;11.40;9.85;;;2.40;99.90;;;;;;5063745;28;20103;-37
2023/01/22 12:43:09;;;;;;;11.77;9.82;;;2.30;99.90;;;;;;5042306;28;20109;-38
2023/01/22 12:45:43;;;;;;;11.38;9.73;;;2.30;99.90;;;;;;5043473;28;20508;-38
2023/01/22 12:48:18;;;;;;;11.95;9.40;;;2.30;99.90;;;;;;5044658;28;20083;-37
2023/01/22 12:50:54;;;;;;;12.20;9.63;;;2.30;99.90;;;;;;5047319;28;20444;-38
2023/01/22 12:53:33;;;;;;;11.43;10.02;;;2.30;99.90;;;;;;5066273;28;20036;-37
2023/01/22 12:56:30;;;;;;;13.98;10.75;;;2.30;99.90;;;;;;5051436;28;20091;-37